CheckWX is a tool to help pilots better visualize weather data.  It is not intended as a substitute for an official pre-flight weather briefing.

17:19:04 UTC

KSDB METAR
Sandberg Airport
Sandberg, California, USA
Current

26 mins ago

KSDB 201653Z AUTO 07017G25KT 10SM CLR 11/M09 A3022 RMK AO2 PK WND 07028/1629 SLP206 T01061094 $
Observed
Feb-20 @ 16:53 UTC
Wind
  • 070° at 17 KTS
  • Gusting to 25 KTS
Visibility
10 SM
Flight Rules
VFR
Cloud Levels
  • Clear skies
Temperature
11°C / 52°F
Dewpoint
-9°C / 16°F
Humidity
24%
Altimeter
30.22" Hg
Pressure
1023.42 hPa
Previous

1 hour ago

KSDB 201553Z AUTO 07021G27KT 10SM CLR 09/M11 A3019 RMK AO2 PK WND 07027/1501 SLP199 T00941106 $
Observed
Feb-20 @ 15:53 UTC
Wind
  • 070° at 21 KTS
  • Gusting to 27 KTS
Visibility
10 SM
Flight Rules
VFR
Cloud Levels
  • Clear skies
Temperature
C / 48°F
Dewpoint
-11°C / 12°F
Humidity
23%
Altimeter
30.19" Hg
Pressure
1022.32 hPa
Previous

2 hours ago

KSDB 201453Z AUTO 07019G26KT 10SM CLR 08/M11 A3018 RMK AO2 PK WND 07028/1425 SLP196 T00831111 53012 $
Observed
Feb-20 @ 14:53 UTC
Wind
  • 070° at 19 KTS
  • Gusting to 26 KTS
Visibility
10 SM
Flight Rules
VFR
Cloud Levels
  • Clear skies
Temperature
C / 46°F
Dewpoint
-11°C / 12°F
Humidity
25%
Altimeter
30.18" Hg
Pressure
1022.02 hPa